James L. Oberstar — WDC6154 — position and weather

sailwx.info

Track history (hours):
 
Tides and Currents Weather Stations Pressure Air Temp Water Temp Dewpoint Dewpoint Depression Visibility Wind Speed Wind Dir Waves Ship Positions

James L. Oberstar

Owner: Destin Trading Corporation, harahan, LA. More information available from US FCC via Universal Licensing System and Coast Guard Vessel Documentation Center.

Last reported at 2016-Jul-28 16:20 UTC. Time now 2016-Jul-28 22:21 UTC.
Position N 29°49' W 093°59'.

Length 26 m.

Type: Towing. MMSI: 367052120.

Date/timePositionNaut miles runAvg speedWind from/ knotsBaromVisibWave heightAir tempDewpointWater temp
2016-Jul-28 16:20N 29°49' W 093°59'0 0.2
2016-Jul-28 15:33N 29°49' W 093°59'43 4.2
2016-Jul-28 05:24N 29°27' W 094°41'10 3.2
2016-Jul-28 02:16N 29°30' W 094°52'5 6.8
2016-Jul-28 01:33N 29°34' W 094°55'7 7.2
2016-Jul-28 00:33N 29°41' W 094°59'6 6.2
2016-Jul-27 23:34N 29°45' W 095°04'2 2.0
2016-Jul-27 22:33N 29°45' W 095°06'0 0.0
2016-Jul-27 20:33N 29°45' W 095°06'0 0.0
2016-Jul-27 18:33N 29°45' W 095°06'0 0.0
2016-Jul-27 17:33N 29°45' W 095°06'0 0.0
2016-Jul-27 16:34N 29°45' W 095°06'0 0.0
2016-Jul-27 15:34N 29°45' W 095°06'0 0.0
2016-Jul-27 14:33N 29°45' W 095°06'0 0.0
2016-Jul-27 13:33N 29°45' W 095°06'0 0.0
2016-Jul-27 12:33N 29°45' W 095°06'11 1.3
2016-Jul-27 03:33N 29°37' W 094°57'44 3.5
2016-Jul-26 15:04N 29°43' W 094°07'4 5.9
2016-Jul-26 14:28N 29°45' W 094°04'5 5.8
2016-Jul-26 13:34N 29°49' W 093°59'1 0.8
2016-Jul-26 12:33N 29°49' W 093°59'0 0.0
2016-Jul-26 11:30N 29°49' W 093°59'0 0.0
2016-Jul-26 10:33N 29°49' W 093°59'0 0.0
2016-Jul-26 09:33N 29°49' W 093°59'0 0.0
2016-Jul-26 08:14N 29°49' W 093°59'0 0.0
2016-Jul-26 07:31N 29°49' W 093°59'0 0.0
2016-Jul-26 06:32N 29°49' W 093°59'0 0.0
2016-Jul-26 05:24N 29°49' W 093°59'0 0.0
2016-Jul-26 04:32N 29°49' W 093°59'0 0.0
2016-Jul-26 03:29N 29°49' W 093°59'0 0.0
2016-Jul-26 02:34N 29°49' W 093°59'0 0.0
2016-Jul-26 01:33N 29°49' W 093°59'0 0.0
2016-Jul-26 00:33N 29°49' W 093°59'0 0.0
2016-Jul-25 23:28N 29°49' W 093°59'0 0.0
2016-Jul-25 22:27N 29°49' W 093°59'0 0.0
2016-Jul-25 21:06N 29°49' W 093°59'0 0.0
2016-Jul-24 08:23N 29°49' W 093°59'0 0.0
2016-Jul-24 07:28N 29°49' W 093°59'0 0.0
2016-Jul-24 06:27N 29°49' W 093°59'0 0.0
2016-Jul-24 04:25N 29°49' W 093°59'0 0.0
2016-Jul-24 03:24N 29°49' W 093°59'0 0.0
2016-Jul-24 02:33N 29°49' W 093°59'0 0.0
2016-Jul-23 12:20N 29°49' W 093°59'0 0.0
2016-Jul-23 11:25N 29°49' W 093°59'0 0.0
2016-Jul-23 10:32N 29°49' W 093°59'0 0.0
2016-Jul-23 09:32N 29°49' W 093°59'0 0.0
2016-Jul-23 08:25N 29°49' W 093°59'0 0.0
2016-Jul-23 06:28N 29°49' W 093°59'0 0.0
2016-Jul-23 04:33N 29°49' W 093°59'0 0.0
2016-Jul-23 03:30N 29°49' W 093°59'0 0.0
2016-Jul-22 13:26N 29°49' W 093°59'3 1.3
2016-Jul-22 11:31N 29°47' W 094°01'5 4.8
2016-Jul-22 10:30N 29°44' W 094°05'6 4.8
2016-Jul-22 09:11N 29°41' W 094°11'1 2.3
2016-Jul-22 08:33N 29°40' W 094°13'36 3.6
2016-Jul-21 22:33N 29°31' W 094°53'7 7.0
2016-Jul-21 21:33N 29°37' W 094°57'7 7.0
2016-Jul-21 20:33N 29°43' W 095°01'5 4.9
2016-Jul-21 19:28N 29°47' W 095°05'0 0.2
2016-Jul-21 18:33N 29°47' W 095°05'0 0.0
2016-Jul-21 17:33N 29°47' W 095°05'0 0.0
2016-Jul-21 16:33N 29°47' W 095°05'0 0.2
2016-Jul-21 15:18N 29°47' W 095°04'1 1.4
2016-Jul-21 14:33N 29°46' W 095°05'3 2.6
2016-Jul-21 13:27N 29°44' W 095°03'0 0.0
2016-Jul-21 12:31N 29°44' W 095°03'0 0.0
2016-Jul-21 11:14N 29°44' W 095°03'0 0.0
2016-Jul-21 10:33N 29°44' W 095°03'0 0.0
2016-Jul-21 09:33N 29°44' W 095°03'0 0.0
2016-Jul-21 08:33N 29°44' W 095°03'0 0.0
2016-Jul-21 07:31N 29°44' W 095°03'0 0.0
2016-Jul-21 06:33N 29°44' W 095°03'0 0.0
2016-Jul-21 05:33N 29°44' W 095°03'0 0.0
2016-Jul-21 03:26N 29°44' W 095°03'0 0.0
2016-Jul-21 02:28N 29°44' W 095°03'0 0.0
2016-Jul-21 00:18N 29°44' W 095°03'0 0.0
2016-Jul-20 23:32N 29°44' W 095°03'0 0.0
2016-Jul-20 22:33N 29°44' W 095°03'0 0.0
2016-Jul-20 21:31N 29°44' W 095°03'0 0.0
2016-Jul-20 20:33N 29°44' W 095°03'0 0.0
2016-Jul-20 19:32N 29°44' W 095°03'0 0.0
2016-Jul-20 18:32N 29°44' W 095°03'0 0.0
2016-Jul-20 17:31N 29°44' W 095°03'2 2.4
2016-Jul-20 16:33N 29°46' W 095°05'2 1.4
2016-Jul-20 15:30N 29°47' W 095°05'0 0.1
2016-Jul-20 14:33N 29°47' W 095°05'0 0.0
2016-Jul-20 13:33N 29°47' W 095°05'0 0.0
2016-Jul-20 12:06N 29°47' W 095°05'0 0.1
2016-Jul-20 11:33N 29°47' W 095°05'0 0.0
2016-Jul-20 10:33N 29°47' W 095°05'0 0.0
2016-Jul-20 09:33N 29°47' W 095°05'0 0.0
2016-Jul-20 08:33N 29°47' W 095°05'0 0.0
2016-Jul-20 07:33N 29°47' W 095°05'0 0.0
2016-Jul-20 06:34N 29°47' W 095°05'0 0.0
2016-Jul-20 05:33N 29°47' W 095°05'0 0.0
2016-Jul-20 04:33N 29°47' W 095°05'0 0.0
2016-Jul-20 03:33N 29°47' W 095°05'0 0.0
2016-Jul-20 02:33N 29°47' W 095°05'0 0.0
2016-Jul-20 01:33N 29°47' W 095°05'0 0.0
2016-Jul-20 00:33N 29°47' W 095°05'0 0.0
2016-Jul-19 23:32N 29°47' W 095°05'0 0.1
2016-Jul-19 22:33N 29°47' W 095°05'0 0.0
2016-Jul-19 21:23N 29°47' W 095°05'0 0.2
2016-Jul-19 20:33N 29°47' W 095°05'0 0.0
2016-Jul-19 19:33N 29°47' W 095°05'0 0.0
2016-Jul-19 18:31N 29°47' W 095°05'0 0.0
2016-Jul-19 17:33N 29°47' W 095°05'0 0.1
2016-Jul-19 16:33N 29°47' W 095°05'0 0.0
2016-Jul-19 15:33N 29°47' W 095°05'0 0.0
2016-Jul-19 14:32N 29°47' W 095°05'0 0.0
2016-Jul-19 13:33N 29°47' W 095°05'0 0.0
2016-Jul-19 12:33N 29°47' W 095°05'0 0.0
2016-Jul-19 11:32N 29°47' W 095°05'0 0.0
2016-Jul-19 10:33N 29°47' W 095°05'0 0.0
2016-Jul-19 09:33N 29°47' W 095°05'0 0.0
2016-Jul-19 08:33N 29°47' W 095°05'0 0.0
2016-Jul-19 07:33N 29°47' W 095°05'0 0.0
2016-Jul-19 04:33N 29°47' W 095°05'0 0.0
2016-Jul-19 03:33N 29°47' W 095°05'0 0.0
2016-Jul-19 02:33N 29°47' W 095°05'0 0.0
2016-Jul-19 01:33N 29°47' W 095°05'0 0.0
2016-Jul-19 00:33N 29°47' W 095°05'0 0.0
2016-Jul-18 23:33N 29°47' W 095°05'0 0.0
2016-Jul-18 22:33N 29°47' W 095°05'0 0.1
2016-Jul-18 21:23N 29°47' W 095°05'0 0.0
2016-Jul-18 20:23N 29°47' W 095°05'0 0.0
2016-Jul-18 19:32N 29°47' W 095°05'0 0.0
2016-Jul-18 18:26N 29°47' W 095°05'0 0.0
2016-Jul-18 17:32N 29°47' W 095°05'  
Track history (hours):
 
Tides and Currents Weather Stations Pressure Air Temp Water Temp Dewpoint Dewpoint Depression Visibility Wind Speed Wind Dir Waves Ship Positions

James L. Oberstar

Owner: Destin Trading Corporation, harahan, LA. More information available from US FCC via Universal Licensing System and Coast Guard Vessel Documentation Center.

Last reported at 2016-Jul-28 16:20 UTC. Time now 2016-Jul-28 22:21 UTC.
Position N 29°49' W 093°59'.

Length 26 m.

Type: Towing. MMSI: 367052120.

Date/timePositionNaut miles runAvg speedWind from/ knotsBaromVisibWave heightAir tempDewpointWater temp
2016-Jul-28 16:20N 29°49' W 093°59'0 0.2
2016-Jul-28 15:33N 29°49' W 093°59'43 4.2
2016-Jul-28 05:24N 29°27' W 094°41'10 3.2
2016-Jul-28 02:16N 29°30' W 094°52'5 6.8
2016-Jul-28 01:33N 29°34' W 094°55'7 7.2
2016-Jul-28 00:33N 29°41' W 094°59'6 6.2
2016-Jul-27 23:34N 29°45' W 095°04'2 2.0
2016-Jul-27 22:33N 29°45' W 095°06'0 0.0
2016-Jul-27 20:33N 29°45' W 095°06'0 0.0
2016-Jul-27 18:33N 29°45' W 095°06'0 0.0
2016-Jul-27 17:33N 29°45' W 095°06'0 0.0
2016-Jul-27 16:34N 29°45' W 095°06'0 0.0
2016-Jul-27 15:34N 29°45' W 095°06'0 0.0
2016-Jul-27 14:33N 29°45' W 095°06'0 0.0
2016-Jul-27 13:33N 29°45' W 095°06'0 0.0
2016-Jul-27 12:33N 29°45' W 095°06'11 1.3
2016-Jul-27 03:33N 29°37' W 094°57'44 3.5
2016-Jul-26 15:04N 29°43' W 094°07'4 5.9
2016-Jul-26 14:28N 29°45' W 094°04'5 5.8
2016-Jul-26 13:34N 29°49' W 093°59'1 0.8
2016-Jul-26 12:33N 29°49' W 093°59'0 0.0
2016-Jul-26 11:30N 29°49' W 093°59'0 0.0
2016-Jul-26 10:33N 29°49' W 093°59'0 0.0
2016-Jul-26 09:33N 29°49' W 093°59'0 0.0
2016-Jul-26 08:14N 29°49' W 093°59'0 0.0
2016-Jul-26 07:31N 29°49' W 093°59'0 0.0
2016-Jul-26 06:32N 29°49' W 093°59'0 0.0
2016-Jul-26 05:24N 29°49' W 093°59'0 0.0
2016-Jul-26 04:32N 29°49' W 093°59'0 0.0
2016-Jul-26 03:29N 29°49' W 093°59'0 0.0
2016-Jul-26 02:34N 29°49' W 093°59'0 0.0
2016-Jul-26 01:33N 29°49' W 093°59'0 0.0
2016-Jul-26 00:33N 29°49' W 093°59'0 0.0
2016-Jul-25 23:28N 29°49' W 093°59'0 0.0
2016-Jul-25 22:27N 29°49' W 093°59'0 0.0
2016-Jul-25 21:06N 29°49' W 093°59'0 0.0
2016-Jul-24 08:23N 29°49' W 093°59'0 0.0
2016-Jul-24 07:28N 29°49' W 093°59'0 0.0
2016-Jul-24 06:27N 29°49' W 093°59'0 0.0
2016-Jul-24 04:25N 29°49' W 093°59'0 0.0
2016-Jul-24 03:24N 29°49' W 093°59'0 0.0
2016-Jul-24 02:33N 29°49' W 093°59'0 0.0
2016-Jul-23 12:20N 29°49' W 093°59'0 0.0
2016-Jul-23 11:25N 29°49' W 093°59'0 0.0
2016-Jul-23 10:32N 29°49' W 093°59'0 0.0
2016-Jul-23 09:32N 29°49' W 093°59'0 0.0
2016-Jul-23 08:25N 29°49' W 093°59'0 0.0
2016-Jul-23 06:28N 29°49' W 093°59'0 0.0
2016-Jul-23 04:33N 29°49' W 093°59'0 0.0
2016-Jul-23 03:30N 29°49' W 093°59'0 0.0
2016-Jul-22 13:26N 29°49' W 093°59'3 1.3
2016-Jul-22 11:31N 29°47' W 094°01'5 4.8
2016-Jul-22 10:30N 29°44' W 094°05'6 4.8
2016-Jul-22 09:11N 29°41' W 094°11'1 2.3
2016-Jul-22 08:33N 29°40' W 094°13'36 3.6
2016-Jul-21 22:33N 29°31' W 094°53'7 7.0
2016-Jul-21 21:33N 29°37' W 094°57'7 7.0
2016-Jul-21 20:33N 29°43' W 095°01'5 4.9
2016-Jul-21 19:28N 29°47' W 095°05'0 0.2
2016-Jul-21 18:33N 29°47' W 095°05'0 0.0
2016-Jul-21 17:33N 29°47' W 095°05'0 0.0
2016-Jul-21 16:33N 29°47' W 095°05'0 0.2
2016-Jul-21 15:18N 29°47' W 095°04'1 1.4
2016-Jul-21 14:33N 29°46' W 095°05'3 2.6
2016-Jul-21 13:27N 29°44' W 095°03'0 0.0
2016-Jul-21 12:31N 29°44' W 095°03'0 0.0
2016-Jul-21 11:14N 29°44' W 095°03'0 0.0
2016-Jul-21 10:33N 29°44' W 095°03'0 0.0
2016-Jul-21 09:33N 29°44' W 095°03'0 0.0
2016-Jul-21 08:33N 29°44' W 095°03'0 0.0
2016-Jul-21 07:31N 29°44' W 095°03'0 0.0
2016-Jul-21 06:33N 29°44' W 095°03'0 0.0
2016-Jul-21 05:33N 29°44' W 095°03'0 0.0
2016-Jul-21 03:26N 29°44' W 095°03'0 0.0
2016-Jul-21 02:28N 29°44' W 095°03'0 0.0
2016-Jul-21 00:18N 29°44' W 095°03'0 0.0
2016-Jul-20 23:32N 29°44' W 095°03'0 0.0
2016-Jul-20 22:33N 29°44' W 095°03'0 0.0
2016-Jul-20 21:31N 29°44' W 095°03'0 0.0
2016-Jul-20 20:33N 29°44' W 095°03'0 0.0
2016-Jul-20 19:32N 29°44' W 095°03'0 0.0
2016-Jul-20 18:32N 29°44' W 095°03'0 0.0
2016-Jul-20 17:31N 29°44' W 095°03'2 2.4
2016-Jul-20 16:33N 29°46' W 095°05'2 1.4
2016-Jul-20 15:30N 29°47' W 095°05'0 0.1
2016-Jul-20 14:33N 29°47' W 095°05'0 0.0
2016-Jul-20 13:33N 29°47' W 095°05'0 0.0
2016-Jul-20 12:06N 29°47' W 095°05'0 0.1
2016-Jul-20 11:33N 29°47' W 095°05'0 0.0
2016-Jul-20 10:33N 29°47' W 095°05'0 0.0
2016-Jul-20 09:33N 29°47' W 095°05'0 0.0
2016-Jul-20 08:33N 29°47' W 095°05'0 0.0
2016-Jul-20 07:33N 29°47' W 095°05'0 0.0
2016-Jul-20 06:34N 29°47' W 095°05'0 0.0
2016-Jul-20 05:33N 29°47' W 095°05'0 0.0
2016-Jul-20 04:33N 29°47' W 095°05'0 0.0
2016-Jul-20 03:33N 29°47' W 095°05'0 0.0
2016-Jul-20 02:33N 29°47' W 095°05'0 0.0
2016-Jul-20 01:33N 29°47' W 095°05'0 0.0
2016-Jul-20 00:33N 29°47' W 095°05'0 0.0
2016-Jul-19 23:32N 29°47' W 095°05'0 0.1
2016-Jul-19 22:33N 29°47' W 095°05'0 0.0
2016-Jul-19 21:23N 29°47' W 095°05'0 0.2
2016-Jul-19 20:33N 29°47' W 095°05'0 0.0
2016-Jul-19 19:33N 29°47' W 095°05'0 0.0
2016-Jul-19 18:31N 29°47' W 095°05'0 0.0
2016-Jul-19 17:33N 29°47' W 095°05'0 0.1
2016-Jul-19 16:33N 29°47' W 095°05'0 0.0
2016-Jul-19 15:33N 29°47' W 095°05'0 0.0
2016-Jul-19 14:32N 29°47' W 095°05'0 0.0
2016-Jul-19 13:33N 29°47' W 095°05'0 0.0
2016-Jul-19 12:33N 29°47' W 095°05'0 0.0
2016-Jul-19 11:32N 29°47' W 095°05'0 0.0
2016-Jul-19 10:33N 29°47' W 095°05'0 0.0
2016-Jul-19 09:33N 29°47' W 095°05'0 0.0
2016-Jul-19 08:33N 29°47' W 095°05'0 0.0
2016-Jul-19 07:33N 29°47' W 095°05'0 0.0
2016-Jul-19 04:33N 29°47' W 095°05'0 0.0
2016-Jul-19 03:33N 29°47' W 095°05'0 0.0
2016-Jul-19 02:33N 29°47' W 095°05'0 0.0
2016-Jul-19 01:33N 29°47' W 095°05'0 0.0
2016-Jul-19 00:33N 29°47' W 095°05'0 0.0
2016-Jul-18 23:33N 29°47' W 095°05'0 0.0
2016-Jul-18 22:33N 29°47' W 095°05'0 0.1
2016-Jul-18 21:23N 29°47' W 095°05'0 0.0
2016-Jul-18 20:23N 29°47' W 095°05'0 0.0
2016-Jul-18 19:32N 29°47' W 095°05'0 0.0
2016-Jul-18 18:26N 29°47' W 095°05'0 0.0
2016-Jul-18 17:32N 29°47' W 095°05'  

Dump ship's entire track history